sensor_id;sensor_type;location;lat;lon;timestamp;pressure;altitude;pressure_sealevel;temperature;humidity
71768;BME280;59604;52.138;5.446;2022-11-24T00:01:04;100393.06;;;6.63;100.00
71768;BME280;59604;52.138;5.446;2022-11-24T00:03:32;100393.72;;;6.65;100.00
71768;BME280;59604;52.138;5.446;2022-11-24T00:06:07;100392.72;;;6.66;100.00
71768;BME280;59604;52.138;5.446;2022-11-24T00:08:35;100388.63;;;6.71;100.00
71768;BME280;59604;52.138;5.446;2022-11-24T00:11:12;100376.81;;;6.75;100.00
71768;BME280;59604;52.138;5.446;2022-11-24T00:13:42;100385.31;;;6.77;100.00
71768;BME280;59604;52.138;5.446;2022-11-24T00:16:15;100398.03;;;6.81;100.00
71768;BME280;59604;52.138;5.446;2022-11-24T00:18:44;100415.19;;;6.83;100.00
71768;BME280;59604;52.138;5.446;2022-11-24T00:21:11;100421.25;;;6.84;100.00
71768;BME280;59604;52.138;5.446;2022-11-24T00:23:37;100424.53;;;6.86;100.00
71768;BME280;59604;52.138;5.446;2022-11-24T00:26:09;100420.44;;;6.83;100.00
71768;BME280;59604;52.138;5.446;2022-11-24T00:28:38;100426.66;;;6.82;100.00
71768;BME280;59604;52.138;5.446;2022-11-24T00:31:14;100407.88;;;6.78;100.00
71768;BME280;59604;52.138;5.446;2022-11-24T00:33:43;100426.34;;;6.77;100.00
71768;BME280;59604;52.138;5.446;2022-11-24T00:36:11;100417.22;;;6.73;100.00
71768;BME280;59604;52.138;5.446;2022-11-24T00:38:37;100415.94;;;6.69;100.00
71768;BME280;59604;52.138;5.446;2022-11-24T00:41:04;100421.19;;;6.69;100.00
71768;BME280;59604;52.138;5.446;2022-11-24T00:43:32;100427.88;;;6.71;100.00
71768;BME280;59604;52.138;5.446;2022-11-24T00:45:59;100420.84;;;6.72;100.00
71768;BME280;59604;52.138;5.446;2022-11-24T00:48:26;100419.84;;;6.73;100.00
71768;BME280;59604;52.138;5.446;2022-11-24T00:50:58;100427.22;;;6.69;100.00
71768;BME280;59604;52.138;5.446;2022-11-24T00:53:25;100436.25;;;6.67;100.00
71768;BME280;59604;52.138;5.446;2022-11-24T00:55:52;100439.03;;;6.65;100.00
71768;BME280;59604;52.138;5.446;2022-11-24T00:58:20;100440.16;;;6.63;100.00
71768;BME280;59604;52.138;5.446;2022-11-24T01:00:47;100440.69;;;6.58;100.00
71768;BME280;59604;52.138;5.446;2022-11-24T01:03:14;100441.69;;;6.57;100.00
71768;BME280;59604;52.138;5.446;2022-11-24T01:05:41;100444.31;;;6.57;100.00
71768;BME280;59604;52.138;5.446;2022-11-24T01:08:08;100453.97;;;6.57;100.00
71768;BME280;59604;52.138;5.446;2022-11-24T01:10:34;100453.31;;;6.54;100.00
71768;BME280;59604;52.138;5.446;2022-11-24T01:13:01;100455.09;;;6.54;100.00
71768;BME280;59604;52.138;5.446;2022-11-24T01:15:28;100451.88;;;6.52;100.00
71768;BME280;59604;52.138;5.446;2022-11-24T01:17:56;100457.59;;;6.47;100.00
71768;BME280;59604;52.138;5.446;2022-11-24T01:20:22;100452.88;;;6.43;100.00
71768;BME280;59604;52.138;5.446;2022-11-24T01:22:49;100471.50;;;6.40;100.00
71768;BME280;59604;52.138;5.446;2022-11-24T01:25:16;100475.94;;;6.39;100.00
71768;BME280;59604;52.138;5.446;2022-11-24T01:27:42;100476.75;;;6.40;100.00
71768;BME280;59604;52.138;5.446;2022-11-24T01:30:09;100466.28;;;6.40;100.00
71768;BME280;59604;52.138;5.446;2022-11-24T01:32:36;100469.22;;;6.37;100.00
71768;BME280;59604;52.138;5.446;2022-11-24T01:35:04;100473.66;;;6.36;100.00
71768;BME280;59604;52.138;5.446;2022-11-24T01:37:30;100473.19;;;6.33;100.00
71768;BME280;59604;52.138;5.446;2022-11-24T01:39:57;100469.13;;;6.30;100.00
71768;BME280;59604;52.138;5.446;2022-11-24T01:42:24;100474.34;;;6.30;100.00
71768;BME280;59604;52.138;5.446;2022-11-24T01:47:53;100480.25;;;6.24;100.00
71768;BME280;59604;52.138;5.446;2022-11-24T01:50:19;100480.25;;;6.24;100.00
71768;BME280;59604;52.138;5.446;2022-11-24T01:52:50;100477.63;;;6.24;100.00
71768;BME280;59604;52.138;5.446;2022-11-24T01:55:28;100478.44;;;6.24;100.00
71768;BME280;59604;52.138;5.446;2022-11-24T01:58:01;100480.91;;;6.26;100.00
71768;BME280;59604;52.138;5.446;2022-11-24T02:00:30;100483.97;;;6.29;100.00
71768;BME280;59604;52.138;5.446;2022-11-24T02:02:58;100487.06;;;6.33;100.00
71768;BME280;59604;52.138;5.446;2022-11-24T02:05:35;100496.06;;;6.39;100.00
71768;BME280;59604;52.138;5.446;2022-11-24T02:08:07;100489.34;;;6.44;100.00
71768;BME280;59604;52.138;5.446;2022-11-24T02:10:40;100488.66;;;6.50;100.00
71768;BME280;59604;52.138;5.446;2022-11-24T02:13:08;100482.28;;;6.53;100.00
71768;BME280;59604;52.138;5.446;2022-11-24T02:15:34;100490.75;;;6.55;100.00
71768;BME280;59604;52.138;5.446;2022-11-24T02:18:01;100487.28;;;6.63;100.00
71768;BME280;59604;52.138;5.446;2022-11-24T02:20:28;100494.78;;;6.66;100.00
71768;BME280;59604;52.138;5.446;2022-11-24T02:28:16;100490.81;;;6.78;100.00
71768;BME280;59604;52.138;5.446;2022-11-24T02:30:44;100501.94;;;6.80;100.00
71768;BME280;59604;52.138;5.446;2022-11-24T02:33:12;100497.34;;;6.82;100.00
71768;BME280;59604;52.138;5.446;2022-11-24T02:35:39;100504.69;;;6.87;100.00
71768;BME280;59604;52.138;5.446;2022-11-24T02:38:10;100507.78;;;6.90;100.00
71768;BME280;59604;52.138;5.446;2022-11-24T02:40:40;100511.19;;;6.91;100.00
71768;BME280;59604;52.138;5.446;2022-11-24T02:43:15;100511.38;;;6.89;100.00
71768;BME280;59604;52.138;5.446;2022-11-24T02:45:45;100514.00;;;6.89;100.00
71768;BME280;59604;52.138;5.446;2022-11-24T02:48:15;100519.25;;;6.89;100.00
71768;BME280;59604;52.138;5.446;2022-11-24T02:50:42;100517.44;;;6.90;100.00
71768;BME280;59604;52.138;5.446;2022-11-24T02:53:10;100517.44;;;6.90;100.00
71768;BME280;59604;52.138;5.446;2022-11-24T02:55:37;100506.16;;;6.89;100.00
71768;BME280;59604;52.138;5.446;2022-11-24T02:58:04;100511.38;;;6.89;100.00
71768;BME280;59604;52.138;5.446;2022-11-24T03:00:31;100513.19;;;6.89;100.00
71768;BME280;59604;52.138;5.446;2022-11-24T03:02:57;100517.44;;;6.90;100.00
71768;BME280;59604;52.138;5.446;2022-11-24T03:05:38;100514.63;;;6.91;100.00
71768;BME280;59604;52.138;5.446;2022-11-24T03:08:09;100523.16;;;6.93;100.00
71768;BME280;59604;52.138;5.446;2022-11-24T03:10:38;100514.28;;;6.94;100.00
71768;BME280;59604;52.138;5.446;2022-11-24T03:13:05;100507.25;;;6.95;100.00
71768;BME280;59604;52.138;5.446;2022-11-24T03:15:31;100504.47;;;6.96;100.00
71768;BME280;59604;52.138;5.446;2022-11-24T03:17:58;100514.75;;;6.98;100.00
71768;BME280;59604;52.138;5.446;2022-11-24T03:20:26;100515.75;;;6.97;100.00
71768;BME280;59604;52.138;5.446;2022-11-24T03:22:53;100517.19;;;6.99;100.00
71768;BME280;59604;52.138;5.446;2022-11-24T03:25:27;100519.47;;;7.02;100.00
71768;BME280;59604;52.138;5.446;2022-11-24T03:27:55;100520.94;;;7.05;100.00
71768;BME280;59604;52.138;5.446;2022-11-24T03:30:25;100519.94;;;7.06;100.00
71768;BME280;59604;52.138;5.446;2022-11-24T03:32:52;100515.38;;;7.08;100.00
71768;BME280;59604;52.138;5.446;2022-11-24T03:35:20;100514.38;;;7.09;100.00
71768;BME280;59604;52.138;5.446;2022-11-24T03:37:47;100522.88;;;7.11;100.00
71768;BME280;59604;52.138;5.446;2022-11-24T03:40:15;100526.47;;;7.10;100.00
71768;BME280;59604;52.138;5.446;2022-11-24T03:42:43;100528.13;;;7.11;100.00
71768;BME280;59604;52.138;5.446;2022-11-24T03:45:09;100528.47;;;7.08;100.00
71768;BME280;59604;52.138;5.446;2022-11-24T03:47:58;100520.75;;;7.07;100.00
71768;BME280;59604;52.138;5.446;2022-11-24T03:50:24;100527.19;;;7.04;100.00
71768;BME280;59604;52.138;5.446;2022-11-24T03:52:51;100529.94;;;7.02;100.00
71768;BME280;59604;52.138;5.446;2022-11-24T03:55:18;100532.56;;;7.02;100.00
71768;BME280;59604;52.138;5.446;2022-11-24T03:57:44;100536.19;;;7.01;100.00
71768;BME280;59604;52.138;5.446;2022-11-24T04:00:19;100543.03;;;7.02;100.00
71768;BME280;59604;52.138;5.446;2022-11-24T04:02:46;100543.03;;;7.02;100.00
71768;BME280;59604;52.138;5.446;2022-11-24T04:05:14;100539.63;;;7.02;100.00
71768;BME280;59604;52.138;5.446;2022-11-24T04:07:40;100544.69;;;7.04;100.00
71768;BME280;59604;52.138;5.446;2022-11-24T04:10:07;100551.09;;;7.01;100.00
71768;BME280;59604;52.138;5.446;2022-11-24T04:12:34;100552.72;;;7.02;100.00
71768;BME280;59604;52.138;5.446;2022-11-24T04:15:17;100558.59;;;7.04;100.00
71768;BME280;59604;52.138;5.446;2022-11-24T04:17:45;100553.38;;;7.04;100.00
71768;BME280;59604;52.138;5.446;2022-11-24T04:20:13;100567.09;;;7.06;100.00
71768;BME280;59604;52.138;5.446;2022-11-24T04:22:40;100569.88;;;7.05;100.00
71768;BME280;59604;52.138;5.446;2022-11-24T04:25:08;100577.91;;;7.03;100.00
71768;BME280;59604;52.138;5.446;2022-11-24T04:27:36;100577.09;;;7.02;100.00
71768;BME280;59604;52.138;5.446;2022-11-24T04:30:06;100585.13;;;7.01;100.00
71768;BME280;59604;52.138;5.446;2022-11-24T04:32:32;100584.78;;;7.04;100.00
71768;BME280;59604;52.138;5.446;2022-11-24T04:34:59;100582.00;;;7.06;100.00
71768;BME280;59604;52.138;5.446;2022-11-24T04:37:25;100589.84;;;7.06;100.00
71768;BME280;59604;52.138;5.446;2022-11-24T04:39:52;100592.47;;;7.06;100.00
71768;BME280;59604;52.138;5.446;2022-11-24T04:42:20;100593.28;;;7.06;100.00
71768;BME280;59604;52.138;5.446;2022-11-24T04:44:47;100595.91;;;7.06;100.00
71768;BME280;59604;52.138;5.446;2022-11-24T04:47:19;100607.03;;;7.08;100.00
71768;BME280;59604;52.138;5.446;2022-11-24T04:49:47;100613.91;;;7.09;100.00
71768;BME280;59604;52.138;5.446;2022-11-24T04:52:19;100613.75;;;7.11;100.00
71768;BME280;59604;52.138;5.446;2022-11-24T04:55:00;100614.38;;;7.13;100.00
71768;BME280;59604;52.138;5.446;2022-11-24T04:57:27;100626.47;;;7.14;100.00
71768;BME280;59604;52.138;5.446;2022-11-24T04:59:54;100627.31;;;7.14;100.00
71768;BME280;59604;52.138;5.446;2022-11-24T05:02:21;100630.09;;;7.13;100.00
71768;BME280;59604;52.138;5.446;2022-11-24T05:04:48;100633.50;;;7.13;100.00
71768;BME280;59604;52.138;5.446;2022-11-24T05:07:16;100641.84;;;7.17;100.00
71768;BME280;59604;52.138;5.446;2022-11-24T05:09:45;100643.47;;;7.18;100.00
71768;BME280;59604;52.138;5.446;2022-11-24T05:12:31;100648.72;;;7.18;100.00
71768;BME280;59604;52.138;5.446;2022-11-24T05:14:59;100649.38;;;7.20;100.00
71768;BME280;59604;52.138;5.446;2022-11-24T05:17:31;100660.03;;;7.18;100.00
71768;BME280;59604;52.138;5.446;2022-11-24T05:19:58;100664.91;;;7.21;100.00
71768;BME280;59604;52.138;5.446;2022-11-24T05:22:27;100669.34;;;7.21;100.00
71768;BME280;59604;52.138;5.446;2022-11-24T05:24:54;100669.66;;;7.18;100.00
71768;BME280;59604;52.138;5.446;2022-11-24T05:27:21;100677.88;;;7.15;100.00
71768;BME280;59604;52.138;5.446;2022-11-24T05:29:47;100681.66;;;7.12;100.00
71768;BME280;59604;52.138;5.446;2022-11-24T05:32:14;100688.69;;;7.12;100.00
71768;BME280;59604;52.138;5.446;2022-11-24T05:34:41;100690.03;;;7.08;100.00
71768;BME280;59604;52.138;5.446;2022-11-24T05:37:07;100697.06;;;7.07;100.00
71768;BME280;59604;52.138;5.446;2022-11-24T05:39:35;100701.81;;;7.04;100.00
71768;BME280;59604;52.138;5.446;2022-11-24T05:42:03;100702.78;;;7.02;100.00
71768;BME280;59604;52.138;5.446;2022-11-24T05:44:51;100710.00;;;7.00;100.00
71768;BME280;59604;52.138;5.446;2022-11-24T05:47:21;100713.59;;;6.99;100.00
71768;BME280;59604;52.138;5.446;2022-11-24T05:49:48;100713.78;;;6.98;100.00
71768;BME280;59604;52.138;5.446;2022-11-24T05:52:15;100723.63;;;6.96;100.00
71768;BME280;59604;52.138;5.446;2022-11-24T05:54:41;100730.81;;;6.94;100.00
71768;BME280;59604;52.138;5.446;2022-11-24T05:57:08;100738.00;;;6.92;100.00
71768;BME280;59604;52.138;5.446;2022-11-24T05:59:35;100745.22;;;6.90;100.00
71768;BME280;59604;52.138;5.446;2022-11-24T06:02:01;100747.84;;;6.90;100.00
71768;BME280;59604;52.138;5.446;2022-11-24T06:04:29;100755.84;;;6.88;100.00
71768;BME280;59604;52.138;5.446;2022-11-24T06:06:56;100758.31;;;6.90;100.00
71768;BME280;59604;52.138;5.446;2022-11-24T06:09:23;100764.34;;;6.90;100.00
71768;BME280;59604;52.138;5.446;2022-11-24T06:11:53;100766.16;;;6.90;100.00
71768;BME280;59604;52.138;5.446;2022-11-24T06:14:21;100766.16;;;6.90;100.00
71768;BME280;59604;52.138;5.446;2022-11-24T06:16:48;100775.66;;;6.91;100.00
71768;BME280;59604;52.138;5.446;2022-11-24T06:19:14;100784.50;;;6.90;100.00
71768;BME280;59604;52.138;5.446;2022-11-24T06:21:41;100782.88;;;6.89;100.00
71768;BME280;59604;52.138;5.446;2022-11-24T06:24:08;100785.47;;;6.89;100.00
71768;BME280;59604;52.138;5.446;2022-11-24T06:26:34;100794.16;;;6.89;100.00
71768;BME280;59604;52.138;5.446;2022-11-24T06:29:01;100793.47;;;6.87;100.00
71768;BME280;59604;52.138;5.446;2022-11-24T06:31:28;100802.97;;;6.88;100.00
71768;BME280;59604;52.138;5.446;2022-11-24T06:33:55;100803.81;;;6.89;100.00
71768;BME280;59604;52.138;5.446;2022-11-24T06:36:21;100811.66;;;6.89;100.00
71768;BME280;59604;52.138;5.446;2022-11-24T06:38:48;100815.09;;;6.89;100.00
71768;BME280;59604;52.138;5.446;2022-11-24T06:41:15;100817.72;;;6.89;100.00
71768;BME280;59604;52.138;5.446;2022-11-24T06:43:43;100824.75;;;6.89;100.00
71768;BME280;59604;52.138;5.446;2022-11-24T06:46:10;100837.84;;;6.89;100.00
71768;BME280;59604;52.138;5.446;2022-11-24T06:48:37;100833.56;;;6.88;100.00
71768;BME280;59604;52.138;5.446;2022-11-24T06:51:06;100844.84;;;6.88;100.00
71768;BME280;59604;52.138;5.446;2022-11-24T06:53:36;100847.47;;;6.88;100.00
71768;BME280;59604;52.138;5.446;2022-11-24T06:56:04;100846.66;;;6.88;100.00
71768;BME280;59604;52.138;5.446;2022-11-24T06:58:40;100848.78;;;6.84;100.00
71768;BME280;59604;52.138;5.446;2022-11-24T07:01:08;100852.88;;;6.78;100.00
71768;BME280;59604;52.138;5.446;2022-11-24T07:03:35;100856.16;;;6.72;100.00
71768;BME280;59604;52.138;5.446;2022-11-24T07:06:02;100875.78;;;6.68;100.00
71768;BME280;59604;52.138;5.446;2022-11-24T07:08:29;100871.66;;;6.66;100.00
71768;BME280;59604;52.138;5.446;2022-11-24T07:10:56;100874.16;;;6.67;100.00
71768;BME280;59604;52.138;5.446;2022-11-24T07:13:22;100884.75;;;6.66;100.00
71768;BME280;59604;52.138;5.446;2022-11-24T07:15:49;100880.50;;;6.65;100.00
71768;BME280;59604;52.138;5.446;2022-11-24T07:18:16;100891.66;;;6.67;100.00
71768;BME280;59604;52.138;5.446;2022-11-24T07:20:42;100889.84;;;6.67;100.00
71768;BME280;59604;52.138;5.446;2022-11-24T07:23:09;100901.94;;;6.68;100.00
71768;BME280;59604;52.138;5.446;2022-11-24T07:25:35;100900.81;;;6.71;100.00
71768;BME280;59604;52.138;5.446;2022-11-24T07:28:02;100902.44;;;6.72;100.00
71768;BME280;59604;52.138;5.446;2022-11-24T07:30:29;100912.75;;;6.73;100.00
71768;BME280;59604;52.138;5.446;2022-11-24T07:33:02;100901.97;;;6.76;100.00
71768;BME280;59604;52.138;5.446;2022-11-24T07:35:29;100900.16;;;6.77;100.00
71768;BME280;59604;52.138;5.446;2022-11-24T07:37:57;100901.81;;;6.78;100.00
71768;BME280;59604;52.138;5.446;2022-11-24T07:40:25;100914.72;;;6.80;100.00
71768;BME280;59604;52.138;5.446;2022-11-24T07:42:52;100917.16;;;6.81;100.00
71768;BME280;59604;52.138;5.446;2022-11-24T07:45:19;100925.88;;;6.82;100.00
71768;BME280;59604;52.138;5.446;2022-11-24T07:47:46;100940.59;;;6.83;100.00
71768;BME280;59604;52.138;5.446;2022-11-24T07:50:13;100942.06;;;6.85;100.00
71768;BME280;59604;52.138;5.446;2022-11-24T07:52:40;100953.19;;;6.87;100.00
71768;BME280;59604;52.138;5.446;2022-11-24T07:55:07;100948.78;;;6.88;100.00
71768;BME280;59604;52.138;5.446;2022-11-24T07:57:34;100959.25;;;6.88;100.00
71768;BME280;59604;52.138;5.446;2022-11-24T08:00:02;100967.78;;;6.90;100.00
71768;BME280;59604;52.138;5.446;2022-11-24T08:02:29;100976.28;;;6.92;100.00
71768;BME280;59604;52.138;5.446;2022-11-24T08:04:56;100980.69;;;6.91;100.00
71768;BME280;59604;52.138;5.446;2022-11-24T08:07:23;100986.75;;;6.92;100.00
71768;BME280;59604;52.138;5.446;2022-11-24T08:09:49;100988.41;;;6.93;100.00
71768;BME280;59604;52.138;5.446;2022-11-24T08:12:18;100989.03;;;6.95;100.00
71768;BME280;59604;52.138;5.446;2022-11-24T08:14:48;100999.88;;;7.00;100.00
71768;BME280;59604;52.138;5.446;2022-11-24T08:17:17;101003.16;;;7.02;100.00
71768;BME280;59604;52.138;5.446;2022-11-24T08:19:44;101002.81;;;7.05;100.00
71768;BME280;59604;52.138;5.446;2022-11-24T08:22:11;100996.47;;;7.08;100.00
71768;BME280;59604;52.138;5.446;2022-11-24T08:24:37;100994.47;;;7.10;100.00
71768;BME280;59604;52.138;5.446;2022-11-24T08:27:05;100995.97;;;7.12;100.00
71768;BME280;59604;52.138;5.446;2022-11-24T08:29:32;101003.50;;;7.15;100.00
71768;BME280;59604;52.138;5.446;2022-11-24T08:31:59;100993.66;;;7.17;100.00
71768;BME280;59604;52.138;5.446;2022-11-24T08:34:26;101003.34;;;7.17;100.00
71768;BME280;59604;52.138;5.446;2022-11-24T08:36:52;101009.56;;;7.16;100.00
71768;BME280;59604;52.138;5.446;2022-11-24T08:39:19;101014.97;;;7.14;100.00
71768;BME280;59604;52.138;5.446;2022-11-24T08:41:46;101014.97;;;7.14;100.00
71768;BME280;59604;52.138;5.446;2022-11-24T08:44:12;101016.44;;;7.17;100.00
71768;BME280;59604;52.138;5.446;2022-11-24T08:46:41;101027.91;;;7.24;100.00
71768;BME280;59604;52.138;5.446;2022-11-24T08:49:07;101029.91;;;7.30;100.00
71768;BME280;59604;52.138;5.446;2022-11-24T08:51:35;101020.72;;;7.34;100.00
71768;BME280;59604;52.138;5.446;2022-11-24T08:54:02;101022.22;;;7.37;100.00
71768;BME280;59604;52.138;5.446;2022-11-24T08:56:31;101038.56;;;7.39;100.00
71768;BME280;59604;52.138;5.446;2022-11-24T08:58:58;101037.75;;;7.38;100.00
71768;BME280;59604;52.138;5.446;2022-11-24T09:01:26;101042.19;;;7.38;100.00
71768;BME280;59604;52.138;5.446;2022-11-24T09:03:54;101039.38;;;7.31;100.00
71768;BME280;59604;52.138;5.446;2022-11-24T09:06:24;101048.88;;;7.24;100.00
71768;BME280;59604;52.138;5.446;2022-11-24T09:08:53;101051.97;;;7.19;100.00
71768;BME280;59604;52.138;5.446;2022-11-24T09:11:20;101047.06;;;7.16;100.00
71768;BME280;59604;52.138;5.446;2022-11-24T09:13:47;101054.09;;;7.16;100.00
71768;BME280;59604;52.138;5.446;2022-11-24T09:16:25;101059.84;;;7.19;100.00
71768;BME280;59604;52.138;5.446;2022-11-24T09:18:56;101068.69;;;7.26;100.00
71768;BME280;59604;52.138;5.446;2022-11-24T09:21:23;101075.56;;;7.36;100.00
71768;BME280;59604;52.138;5.446;2022-11-24T09:23:51;101065.91;;;7.36;100.00
71768;BME280;59604;52.138;5.446;2022-11-24T09:26:26;101068.72;;;7.35;100.00
71768;BME280;59604;52.138;5.446;2022-11-24T09:28:55;101072.00;;;7.37;100.00
71768;BME280;59604;52.138;5.446;2022-11-24T09:31:28;101071.81;;;7.38;100.00
71768;BME280;59604;52.138;5.446;2022-11-24T09:33:56;101078.56;;;7.41;100.00
71768;BME280;59604;52.138;5.446;2022-11-24T09:36:23;101082.50;;;7.45;100.00
71768;BME280;59604;52.138;5.446;2022-11-24T09:38:50;101083.97;;;7.47;100.00
71768;BME280;59604;52.138;5.446;2022-11-24T09:49:54;101105.94;;;7.63;100.00
71768;BME280;59604;52.138;5.446;2022-11-24T09:57:56;101117.94;;;7.73;100.00
71768;BME280;59604;52.138;5.446;2022-11-24T10:00:27;101116.44;;;7.79;100.00
71768;BME280;59604;52.138;5.446;2022-11-24T10:02:56;101122.84;;;7.85;100.00
71768;BME280;59604;52.138;5.446;2022-11-24T10:05:25;101125.13;;;7.88;100.00
71768;BME280;59604;52.138;5.446;2022-11-24T10:11:10;101136.78;;;7.93;100.00
71768;BME280;59604;52.138;5.446;2022-11-24T10:14:01;101138.75;;;7.99;100.00
71768;BME280;59604;52.138;5.446;2022-11-24T10:16:55;101135.16;;;8.09;100.00
71768;BME280;59604;52.138;5.446;2022-11-24T10:19:29;101143.50;;;8.12;100.00
71768;BME280;59604;52.138;5.446;2022-11-24T10:25:19;101144.66;;;8.18;100.00
71768;BME280;59604;52.138;5.446;2022-11-24T10:28:11;101149.09;;;8.17;100.00
71768;BME280;59604;52.138;5.446;2022-11-24T10:30:38;101154.34;;;8.17;100.00
71768;BME280;59604;52.138;5.446;2022-11-24T10:33:19;101154.19;;;8.19;100.00
71768;BME280;59604;52.138;5.446;2022-11-24T10:36:39;101166.78;;;8.23;100.00
71768;BME280;59604;52.138;5.446;2022-11-24T10:39:11;101174.84;;;8.22;100.00
71768;BME280;59604;52.138;5.446;2022-11-24T10:41:51;101168.91;;;8.28;100.00
71768;BME280;59604;52.138;5.446;2022-11-24T10:44:22;101174.19;;;8.36;100.00
71768;BME280;59604;52.138;5.446;2022-11-24T10:46:48;101174.69;;;8.48;100.00
71768;BME280;59604;52.138;5.446;2022-11-24T10:49:26;101176.66;;;8.54;100.00
71768;BME280;59604;52.138;5.446;2022-11-24T10:52:04;101182.25;;;8.51;100.00
71768;BME280;59604;52.138;5.446;2022-11-24T10:54:52;101182.25;;;8.51;100.00
71768;BME280;59604;52.138;5.446;2022-11-24T10:57:27;101182.88;;;8.53;100.00
71768;BME280;59604;52.138;5.446;2022-11-24T10:59:54;101189.94;;;8.53;100.00
71768;BME280;59604;52.138;5.446;2022-11-24T11:02:29;101195.03;;;8.62;100.00
71768;BME280;59604;52.138;5.446;2022-11-24T11:04:56;101192.22;;;8.72;100.00
71768;BME280;59604;52.138;5.446;2022-11-24T11:07:25;101195.00;;;8.79;100.00
71768;BME280;59604;52.138;5.446;2022-11-24T11:10:21;101200.75;;;8.82;100.00
71768;BME280;59604;52.138;5.446;2022-11-24T11:12:48;101198.59;;;8.86;100.00
71768;BME280;59604;52.138;5.446;2022-11-24T11:15:29;101197.75;;;8.93;99.86
71768;BME280;59604;52.138;5.446;2022-11-24T11:17:58;101204.97;;;9.00;99.48
71768;BME280;59604;52.138;5.446;2022-11-24T11:20:31;101197.25;;;9.06;98.80
71768;BME280;59604;52.138;5.446;2022-11-24T11:23:02;101190.19;;;9.07;98.36
71768;BME280;59604;52.138;5.446;2022-11-24T11:25:42;101187.84;;;9.12;98.41
71768;BME280;59604;52.138;5.446;2022-11-24T11:34:13;101200.47;;;9.16;97.33
71768;BME280;59604;52.138;5.446;2022-11-24T11:36:53;101201.16;;;9.18;97.50
71768;BME280;59604;52.138;5.446;2022-11-24T11:39:33;101199.63;;;9.24;96.85
71768;BME280;59604;52.138;5.446;2022-11-24T11:50:52;101188.25;;;9.40;95.97
71768;BME280;59604;52.138;5.446;2022-11-24T11:56:35;101190.66;;;9.50;95.33
71768;BME280;59604;52.138;5.446;2022-11-24T12:01:57;101196.72;;;9.58;95.43
71768;BME280;59604;52.138;5.446;2022-11-24T12:15:41;101198.47;;;9.66;94.11
71768;BME280;59604;52.138;5.446;2022-11-24T12:21:36;101202.22;;;9.72;94.11
71768;BME280;59604;52.138;5.446;2022-11-24T12:26:52;101197.56;;;9.82;93.74
71768;BME280;59604;52.138;5.446;2022-11-24T12:35:03;101205.56;;;9.88;93.09
71768;BME280;59604;52.138;5.446;2022-11-24T12:37:59;101195.72;;;9.90;93.45
71768;BME280;59604;52.138;5.446;2022-11-24T12:40:35;101211.94;;;9.94;93.15
71768;BME280;59604;52.138;5.446;2022-11-24T12:49:10;101214.53;;;10.02;92.62
71768;BME280;59604;52.138;5.446;2022-11-24T12:51:43;101217.00;;;10.04;92.38
71768;BME280;59604;52.138;5.446;2022-11-24T12:54:13;101219.63;;;10.04;92.52
71768;BME280;59604;52.138;5.446;2022-11-24T12:56:56;101227.34;;;10.05;92.41
71768;BME280;59604;52.138;5.446;2022-11-24T12:59:38;101232.63;;;10.05;92.46
71768;BME280;59604;52.138;5.446;2022-11-24T13:02:40;101225.81;;;10.11;92.01
71768;BME280;59604;52.138;5.446;2022-11-24T13:07:49;101225.28;;;10.15;91.24
71768;BME280;59604;52.138;5.446;2022-11-24T13:13:11;101218.41;;;10.14;92.10
71768;BME280;59604;52.138;5.446;2022-11-24T13:26:46;101227.09;;;10.15;90.86
71768;BME280;59604;52.138;5.446;2022-11-24T13:53:36;101219.97;;;10.01;90.65
71768;BME280;59604;52.138;5.446;2022-11-24T14:01:33;101215.03;;;9.98;90.97
71768;BME280;59604;52.138;5.446;2022-11-24T14:07:01;101214.75;;;9.92;90.43
71768;BME280;59604;52.138;5.446;2022-11-24T14:09:39;101218.91;;;9.87;90.39
71768;BME280;59604;52.138;5.446;2022-11-24T14:14:48;101214.34;;;9.81;90.62
71768;BME280;59604;52.138;5.446;2022-11-24T14:19:46;101216.53;;;9.69;91.33
71768;BME280;59604;52.138;5.446;2022-11-24T14:22:25;101208.00;;;9.67;91.62
71768;BME280;59604;52.138;5.446;2022-11-24T14:24:58;101211.78;;;9.64;91.71
71768;BME280;59604;52.138;5.446;2022-11-24T14:27:34;101208.84;;;9.59;91.59
71768;BME280;59604;52.138;5.446;2022-11-24T14:32:39;101195.09;;;9.49;92.45
71768;BME280;59604;52.138;5.446;2022-11-24T14:35:22;101191.50;;;9.42;92.12
71768;BME280;59604;52.138;5.446;2022-11-24T14:37:49;101196.66;;;9.35;92.84
71768;BME280;59604;52.138;5.446;2022-11-24T14:40:42;101197.31;;;9.29;92.83
71768;BME280;59604;52.138;5.446;2022-11-24T14:43:33;101203.25;;;9.23;92.87
71768;BME280;59604;52.138;5.446;2022-11-24T14:46:03;101207.53;;;9.16;93.45
71768;BME280;59604;52.138;5.446;2022-11-24T14:48:44;101212.50;;;9.11;93.87
71768;BME280;59604;52.138;5.446;2022-11-24T14:51:22;101210.38;;;9.06;93.68
71768;BME280;59604;52.138;5.446;2022-11-24T14:53:52;101204.81;;;9.01;94.02
71768;BME280;59604;52.138;5.446;2022-11-24T14:56:25;101206.31;;;8.95;94.13
71768;BME280;59604;52.138;5.446;2022-11-24T14:58:54;101210.25;;;8.91;94.38
71768;BME280;59604;52.138;5.446;2022-11-24T15:04:17;101217.16;;;8.76;94.35
71768;BME280;59604;52.138;5.446;2022-11-24T15:07:15;101211.09;;;8.67;94.62
71768;BME280;59604;52.138;5.446;2022-11-24T15:09:52;101214.38;;;8.61;95.02
71768;BME280;59604;52.138;5.446;2022-11-24T15:12:30;101216.88;;;8.55;94.82
71768;BME280;59604;52.138;5.446;2022-11-24T15:17:48;101218.66;;;8.38;95.24
71768;BME280;59604;52.138;5.446;2022-11-24T15:20:54;101218.00;;;8.36;95.59
71768;BME280;59604;52.138;5.446;2022-11-24T15:23:31;101221.25;;;8.30;95.83
71768;BME280;59604;52.138;5.446;2022-11-24T15:28:29;101223.03;;;8.21;95.79
71768;BME280;59604;52.138;5.446;2022-11-24T15:30:59;101225.84;;;8.19;96.07
71768;BME280;59604;52.138;5.446;2022-11-24T15:33:27;101236.81;;;8.15;96.18